Edea, Cameroon
Current Conditions -  °F | °C
As of 5:00 AM on Thursday 23 Oct 2014 (Local Time) from FKKD Reporting Station
Thunderstorm Thunderstorm  
Wind Chill: 24°   Ceiling: 1300
Heat Index: 24°   Visibility: 6mi
Dew Point: 24°   Wind: 0mph
Humidity: 100%   Direction: NA
Pressure: 29.88"   Gusts: NA
Location:  3.8°N, 10.12°E
Report Text: FKKD 230400Z 00000KT 9999 TS BKN013 FEW016CB 24/24 Q1012 NOSIG
Loading
Personal Weather Stations






























Interactive Weather Map
Tropical Storm Tracking
New forecast layout! Learn more

10-Day Weather Forecast

Advertisements
Track Severe Weather on mobile